Webcam 1 more information Webcam 1


Webcam 2 more information Webcam 2


altri nostri siti meteo:

Pomeziameteo 1Sito sul meteo

Pomeziameteo DashboardSito sul meteo

Caput FrigorisSito sul meteo

BarcellonameteoSito sul meteo

MeteoipassiSito sul meteo

ViterbometeoSito sul meteo

MeteotortoretoSito sul meteo

Stazione LineameteoSito sul meteo



Nessuna attenzione particolare richiesta.    Non ci sono allerte meteo

Weather Underground Storia pagina Testo

Quotidiano Riepilogo per gennaio 16, 2019 Unita:  Metrico    Inglese   Entrambi
« Indietro Day
Avanti Day »
Quotidiano Settimanale mensile Annuale Personalizzato
  Attuale: Max: Min: Media:
Temperatura: -9.9 °C -17.8 °C -17.3 °C -14.7 °C
P.to Rugiada: -23.7 °C -17.8 °C -26.7 °C -24.9 °C
Umidita: 17 % Humidity % 17 % 26 %
Vel. Vento: 12.9 km/h 0 km/h 0 km/h 8.4 km/h
Raffiche: 15.6 km/h 0 km/h - -
Vento:East - - SW
Pressione: 34476.3 hPa 0 hPa 34476.3 hPa -
Precipitazioni: 0 mm      
Historical Graphs
 
 
Dati di tabella per il gennaio 16, 2019
Tempo Temperatura P.to Rugiada Pressione Vento Vel. Vento Raffiche Umidita Tasso delle precipitazioni (oraria)
-17.8 °C -17.8 °C 0 hPa Calm     Humidity % 0 mm
00:00 -16.9 °C -23.7 °C 34567.7 hPa WNW 12.9 km/h 20.8 km/h 40 % 0 mm
00:05 -16.9 °C -23.7 °C 34567.7 hPa WNW 12.9 km/h 18.2 km/h 40 % 0 mm
00:10 -17.1 °C -23.6 °C 34567.7 hPa WNW 10.3 km/h 12.9 km/h 41 % 0 mm
00:15 -17.1 °C -23.6 °C 34567.7 hPa WSW 12.9 km/h 20.8 km/h 41 % 0 mm
00:20 -17 °C -23.7 °C 34567.7 hPa WNW 12.9 km/h 18.2 km/h 40 % 0 mm
00:25 -17.1 °C -23.6 °C 34567.7 hPa West 10.3 km/h 15.6 km/h 41 % 0 mm
00:30 -17.1 °C -23.8 °C 34567.7 hPa SW 10.3 km/h 15.6 km/h 40 % 0 mm
00:35 -17.1 °C -23.8 °C 34533.8 hPa WSW 10.3 km/h 10.3 km/h 40 % 0 mm
00:40 -17.1 °C -23.7 °C 34533.8 hPa West 12.9 km/h 12.9 km/h 41 % 0 mm
00:45 -17.2 °C -23.7 °C 34533.8 hPa West 10.3 km/h 12.9 km/h 41 % 0 mm
00:50 -17.2 °C -23.8 °C 34533.8 hPa WSW 10.3 km/h 15.6 km/h 41 % 0 mm
00:55 -17.2 °C -23.8 °C 34533.8 hPa WSW 7.7 km/h 12.9 km/h 41 % 0 mm
01:00 -17.3 °C -23.7 °C 34533.8 hPa WSW 7.7 km/h 12.9 km/h 42 % 0 mm
01:05 -17.2 °C -23.8 °C 34533.8 hPa WSW 7.7 km/h 10.3 km/h 41 % 0 mm
01:10 -17.2 °C -23.8 °C 34533.8 hPa WSW 5.1 km/h 12.9 km/h 41 % 0 mm
01:15 -17.2 °C -23.9 °C 34533.8 hPa SW 10.3 km/h 15.6 km/h 40 % 0 mm
01:20 -17.2 °C -23.9 °C 34533.8 hPa WSW 7.7 km/h 12.9 km/h 40 % 0 mm
01:25 -17.3 °C -23.8 °C 34533.8 hPa WSW 7.7 km/h 10.3 km/h 41 % 0 mm
01:30 -17.3 °C -23.9 °C 34533.8 hPa West 7.7 km/h 10.3 km/h 41 % 0 mm
01:35 -17.3 °C -23.9 °C 34533.8 hPa WSW 10.3 km/h 12.9 km/h 41 % 0 mm
01:40 -17.2 °C -23.9 °C 34533.8 hPa WSW 12.9 km/h 15.6 km/h 40 % 0 mm
01:45 -17.2 °C -23.9 °C 34533.8 hPa WSW 10.3 km/h 12.9 km/h 40 % 0 mm
01:50 -17.2 °C -24.1 °C 34533.8 hPa WSW 12.9 km/h 18.2 km/h 39 % 0 mm
01:55 -17 °C -24.7 °C 34533.8 hPa West 12.9 km/h 20.8 km/h 35 % 0 mm
02:00 -16.8 °C -24.9 °C 34533.8 hPa WSW 10.3 km/h 20.8 km/h 33 % 0 mm
02:05 -16.8 °C -24.7 °C 34567.7 hPa West 7.7 km/h 10.3 km/h 34 % 0 mm
02:10 -16.9 °C -24.8 °C 34567.7 hPa WNW 10.3 km/h 15.6 km/h 34 % 0 mm
02:15 -16.9 °C -24.9 °C 34567.7 hPa WSW 10.3 km/h 18.2 km/h 33 % 0 mm
02:20 -16.8 °C -24.9 °C 34533.8 hPa WNW 10.3 km/h 20.8 km/h 33 % 0 mm
02:25 -16.8 °C -25.1 °C 34533.8 hPa WNW 12.9 km/h 18.2 km/h 32 % 0 mm
02:30 -16.7 °C -25.2 °C 34533.8 hPa NW 10.3 km/h 15.6 km/h 31 % 0 mm
02:35 -16.6 °C -25.2 °C 34567.7 hPa West 10.3 km/h 15.6 km/h 31 % 0 mm
02:40 -16.6 °C -25.4 °C 34567.7 hPa SW 7.7 km/h 12.9 km/h 30 % 0 mm
02:45 -16.6 °C -25.4 °C 34567.7 hPa WSW 7.7 km/h 12.9 km/h 30 % 0 mm
02:50 -16.6 °C -25.3 °C 34533.8 hPa SW 10.3 km/h 15.6 km/h 30 % 0 mm
02:55 -16.5 °C -25.3 °C 34533.8 hPa West 10.3 km/h 15.6 km/h 30 % 0 mm
03:00 -16.5 °C -25.3 °C 34533.8 hPa WSW 10.3 km/h 20.8 km/h 30 % 0 mm
03:05 -16.6 °C -25.4 °C 34533.8 hPa WSW 10.3 km/h 18.2 km/h 30 % 0 mm
03:10 -16.6 °C -25.4 °C 34533.8 hPa West 10.3 km/h 15.6 km/h 30 % 0 mm
03:15 -16.6 °C -25.3 °C 34533.8 hPa WSW 7.7 km/h 10.3 km/h 30 % 0 mm
03:20 -16.6 °C -25.3 °C 34533.8 hPa WSW 10.3 km/h 15.6 km/h 30 % 0 mm
03:25 -16.4 °C -25.2 °C 34533.8 hPa WSW 10.3 km/h 20.8 km/h 30 % 0 mm
03:30 -16.4 °C -25.2 °C 34533.8 hPa West 10.3 km/h 18.2 km/h 30 % 0 mm
03:35 -16.4 °C -25.2 °C 34533.8 hPa SW 10.3 km/h 15.6 km/h 30 % 0 mm
03:40 -16.3 °C -25.1 °C 34533.8 hPa SSW 10.3 km/h 12.9 km/h 30 % 0 mm
03:45 -16.3 °C -25.1 °C 34533.8 hPa WSW 10.3 km/h 15.6 km/h 30 % 0 mm
03:50 -16.3 °C -25.4 °C 34533.8 hPa SW 10.3 km/h 15.6 km/h 29 % 0 mm
03:55 -16.3 °C -25.3 °C 34533.8 hPa WSW 10.3 km/h 15.6 km/h 29 % 0 mm
04:00 -16.3 °C -25.3 °C 34533.8 hPa WSW 10.3 km/h 15.6 km/h 29 % 0 mm
04:05 -16.2 °C -25.2 °C 34533.8 hPa SW 10.3 km/h 12.9 km/h 29 % 0 mm
04:10 -16.1 °C -25.2 °C 34533.8 hPa SW 10.3 km/h 12.9 km/h 29 % 0 mm
04:15 -16.1 °C -25.9 °C 34533.8 hPa WSW 10.3 km/h 12.9 km/h 26 % 0 mm
04:20 -16.1 °C -25.9 °C 34533.8 hPa SW 10.3 km/h 12.9 km/h 26 % 0 mm
04:25 -16.1 °C -25.9 °C 34533.8 hPa SW 7.7 km/h 12.9 km/h 26 % 0 mm
04:30 -16.1 °C -25.9 °C 34533.8 hPa WSW 10.3 km/h 12.9 km/h 26 % 0 mm
04:35 -16.1 °C -25.9 °C 34533.8 hPa WSW 7.7 km/h 10.3 km/h 26 % 0 mm
04:40 -16 °C -25.8 °C 34533.8 hPa SW 10.3 km/h 12.9 km/h 26 % 0 mm
04:45 -15.8 °C -26.2 °C 34533.8 hPa SW 10.3 km/h 12.9 km/h 24 % 0 mm
04:50 -15.5 °C -26.2 °C 34496.6 hPa SW 7.7 km/h 10.3 km/h 23 % 0 mm
04:55 -15.5 °C -26.2 °C 34496.6 hPa SW 7.7 km/h 10.3 km/h 23 % 0 mm
05:00 -15.7 °C -26.1 °C 34496.6 hPa Calm   7.7 km/h 24 % 0 mm
05:05 -15.9 °C -26.3 °C 34496.6 hPa Calm   7.7 km/h 24 % 0 mm
05:10 -16.2 °C -26.6 °C 34496.6 hPa Calm   7.7 km/h 24 % 0 mm
05:15 -16.2 °C -26.5 °C 34496.6 hPa Calm   5.1 km/h 24 % 0 mm
05:20 -16.2 °C -26.5 °C 34496.6 hPa WSW 7.7 km/h 10.3 km/h 24 % 0 mm
05:25 -15.7 °C -26.1 °C 34496.6 hPa SSW 7.7 km/h 10.3 km/h 24 % 0 mm
05:30 -15.7 °C -26.1 °C 34496.6 hPa SSW 10.3 km/h 12.9 km/h 24 % 0 mm
05:35 -16.1 °C -26.4 °C 34496.6 hPa Calm   10.3 km/h 24 % 0 mm
05:40 -16.3 °C -26.6 °C 34496.6 hPa Calm   5.1 km/h 24 % 0 mm
05:45 -16.2 °C -26.6 °C 34496.6 hPa WSW 5.1 km/h 10.3 km/h 24 % 0 mm
05:50 -16.1 °C -26.4 °C 34533.8 hPa SW 5.1 km/h 10.3 km/h 24 % 0 mm
05:55 -16.1 °C -26.4 °C 34533.8 hPa Calm   7.7 km/h 24 % 0 mm
06:00 -16 °C -26.3 °C 34533.8 hPa SW 5.1 km/h 7.7 km/h 24 % 0 mm
06:05 -15.9 °C -26.3 °C 34533.8 hPa Calm   5.1 km/h 24 % 0 mm
06:10 -15.9 °C -26.3 °C 34533.8 hPa Calm     24 % 0 mm
06:15 -15.9 °C -26.3 °C 34533.8 hPa Calm   5.1 km/h 24 % 0 mm
06:20 -15.9 °C -26.3 °C 34533.8 hPa Calm   7.7 km/h 24 % 0 mm
06:25 -15.9 °C -26.3 °C 34533.8 hPa Calm     24 % 0 mm
06:30 -16.1 °C -26.4 °C 34533.8 hPa Calm     24 % 0 mm
06:35 -16.2 °C -26.5 °C 34533.8 hPa Calm   7.7 km/h 24 % 0 mm
06:40 -16.3 °C -26.6 °C 34533.8 hPa Calm   7.7 km/h 24 % 0 mm
06:45 -16.4 °C -26.7 °C 34533.8 hPa Calm   5.1 km/h 24 % 0 mm
06:50 -16.4 °C -25.9 °C 34533.8 hPa Calm   10.3 km/h 27 % 0 mm
06:55 -16.6 °C -25.6 °C 34533.8 hPa WSW 7.7 km/h 10.3 km/h 29 % 0 mm
07:00 -16.7 °C -25.4 °C 34533.8 hPa West 10.3 km/h 12.9 km/h 30 % 0 mm
07:05 -16.7 °C -25.4 °C 34567.7 hPa WNW 10.3 km/h 12.9 km/h 30 % 0 mm
07:10 -16.4 °C -25.4 °C 34567.7 hPa NW 10.3 km/h 10.3 km/h 29 % 0 mm
07:15 -16.3 °C -25.4 °C 34567.7 hPa NW 10.3 km/h 15.6 km/h 29 % 0 mm
07:20 -15.9 °C -25.8 °C 34533.8 hPa NW 12.9 km/h 18.2 km/h 26 % 0 mm
07:25 -15.9 °C -25.8 °C 34533.8 hPa West 10.3 km/h 15.6 km/h 26 % 0 mm
07:30 -16.1 °C -25.9 °C 34533.8 hPa NW 12.9 km/h 20.8 km/h 26 % 0 mm
07:35 -16.2 °C -25.7 °C 34533.8 hPa WSW 10.3 km/h 18.2 km/h 27 % 0 mm
07:40 -16.3 °C -25.4 °C 34533.8 hPa West 12.9 km/h 18.2 km/h 29 % 0 mm
07:45 -16.4 °C -25.4 °C 34533.8 hPa SW 7.7 km/h 15.6 km/h 29 % 0 mm
07:50 -16.5 °C -25.3 °C 34567.7 hPa West 10.3 km/h 12.9 km/h 30 % 0 mm
07:55 -16.5 °C -25.3 °C 34567.7 hPa WSW 10.3 km/h 12.9 km/h 30 % 0 mm
08:00 -16.4 °C -25.2 °C 34567.7 hPa West 7.7 km/h 12.9 km/h 30 % 0 mm
08:05 -16.4 °C -25.2 °C 34533.8 hPa WNW 10.3 km/h 10.3 km/h 30 % 0 mm
08:10 -16.4 °C -25.4 °C 34533.8 hPa NW 12.9 km/h 20.8 km/h 29 % 0 mm
08:15 -16.4 °C -25.4 °C 34533.8 hPa NW 15.6 km/h 20.8 km/h 29 % 0 mm
08:20 -16.4 °C -25.4 °C 34567.7 hPa WNW 15.6 km/h 20.8 km/h 29 % 0 mm
08:25 -16.2 °C -25.3 °C 34567.7 hPa WSW 5.1 km/h 15.6 km/h 29 % 0 mm
08:30 -16.2 °C -25.3 °C 34567.7 hPa WSW 5.1 km/h 7.7 km/h 29 % 0 mm
08:35 -16.2 °C -25.2 °C 34567.7 hPa West 7.7 km/h 12.9 km/h 29 % 0 mm
08:40 -15.9 °C -25.8 °C 34567.7 hPa West 12.9 km/h 15.6 km/h 26 % 0 mm
08:45 -15.8 °C -25.6 °C 34567.7 hPa WSW 10.3 km/h 15.6 km/h 26 % 0 mm
08:50 -15.6 °C -25.5 °C 34567.7 hPa West 10.3 km/h 18.2 km/h 26 % 0 mm
08:55 -15.5 °C -25.4 °C 34567.7 hPa West 10.3 km/h 12.9 km/h 26 % 0 mm
09:00 -15.4 °C -25.3 °C 34567.7 hPa West 10.3 km/h 12.9 km/h 26 % 0 mm
09:05 -15.3 °C -25.2 °C 34567.7 hPa SSW 7.7 km/h 12.9 km/h 26 % 0 mm
09:10 -15.2 °C -26 °C 34567.7 hPa WSW 7.7 km/h 15.6 km/h 23 % 0 mm
09:15 -15.2 °C -25.9 °C 34567.7 hPa WSW 12.9 km/h 15.6 km/h 23 % 0 mm
09:20 -15 °C -25.8 °C 34567.7 hPa SW 12.9 km/h 20.8 km/h 23 % 0 mm
09:25 -14.8 °C -25.6 °C 34554.1 hPa SW 12.9 km/h 20.8 km/h 23 % 0 mm
09:30 -14.6 °C -25.4 °C 34554.1 hPa WSW 7.7 km/h 15.6 km/h 23 % 0 mm
09:35 -14.4 °C -25.3 °C 34554.1 hPa WSW 7.7 km/h 12.9 km/h 23 % 0 mm
09:40 -14.3 °C -25.2 °C 34554.1 hPa SSW 10.3 km/h 15.6 km/h 23 % 0 mm
09:45 -14.2 °C -25.1 °C 34554.1 hPa SSW 12.9 km/h 15.6 km/h 23 % 0 mm
09:50 -14.2 °C -25.1 °C 34554.1 hPa SW 10.3 km/h 12.9 km/h 23 % 0 mm
09:55 -14.2 °C -25.1 °C 34554.1 hPa SW 12.9 km/h 18.2 km/h 23 % 0 mm
10:00 -14.1 °C -25 °C 34554.1 hPa SW 10.3 km/h 18.2 km/h 23 % 0 mm
10:05 -13.8 °C -25.7 °C 34554.1 hPa WSW 10.3 km/h 12.9 km/h 20 % 0 mm
10:10 -13.6 °C -25.6 °C 34554.1 hPa WSW 10.3 km/h 12.9 km/h 20 % 0 mm
10:15 -13.4 °C -25.4 °C 34554.1 hPa WSW 7.7 km/h 12.9 km/h 20 % 0 mm
10:20 -13.2 °C -25.6 °C 34554.1 hPa SW 7.7 km/h 12.9 km/h 19 % 0 mm
10:25 -13.1 °C -25.4 °C 34554.1 hPa West 7.7 km/h 15.6 km/h 19 % 0 mm
10:30 -12.8 °C -25.3 °C 34554.1 hPa West 7.7 km/h 10.3 km/h 19 % 0 mm
10:35 -12.7 °C -25.1 °C 34554.1 hPa SW 10.3 km/h 10.3 km/h 19 % 0 mm
10:40 -12.6 °C -25.1 °C 34554.1 hPa West 5.1 km/h 7.7 km/h 19 % 0 mm
10:45 -12.4 °C -24.9 °C 34554.1 hPa Calm   7.7 km/h 19 % 0 mm
10:50 -12.2 °C -24.7 °C 34554.1 hPa Calm   7.7 km/h 19 % 0 mm
10:55 -11.9 °C -24.6 °C 34554.1 hPa Calm     19 % 0 mm
11:00 -11.7 °C -24.7 °C 34554.1 hPa Calm   7.7 km/h 18 % 0 mm
11:05 -11.4 °C -24.5 °C 34554.1 hPa Calm   5.1 km/h 18 % 0 mm
11:10 -11.1 °C -24.2 °C 34544 hPa Calm     18 % 0 mm
11:15 -10.8 °C -24 °C 34544 hPa Calm     18 % 0 mm
11:20 -10.7 °C -23.8 °C 34544 hPa Calm   7.7 km/h 18 % 0 mm
11:25 -10.6 °C -23.8 °C 34544 hPa Calm   7.7 km/h 18 % 0 mm
11:30 -10.6 °C -23.8 °C 34544 hPa SE 7.7 km/h 10.3 km/h 18 % 0 mm
11:35 -10.6 °C -24.2 °C 34544 hPa East 7.7 km/h 10.3 km/h 17 % 0 mm
11:40 -10.4 °C -24.1 °C 34544 hPa ESE 7.7 km/h 15.6 km/h 17 % 0 mm
11:45 -10.3 °C -24 °C 34544 hPa ENE 7.7 km/h 10.3 km/h 17 % 0 mm
11:50 -10.3 °C -23.9 °C 34510.1 hPa East 7.7 km/h 12.9 km/h 17 % 0 mm
11:55 -10.2 °C -23.9 °C 34510.1 hPa NE 5.1 km/h 15.6 km/h 17 % 0 mm
12:00 -10.2 °C -23.9 °C 34510.1 hPa East 10.3 km/h 12.9 km/h 17 % 0 mm
12:05 -10.2 °C -23.9 °C 34510.1 hPa East 7.7 km/h 12.9 km/h 17 % 0 mm
12:10 -10.2 °C -23.8 °C 34510.1 hPa East 7.7 km/h 15.6 km/h 17 % 0 mm
12:15 -10.2 °C -23.8 °C 34510.1 hPa East 5.1 km/h 12.9 km/h 17 % 0 mm
12:20 -10.2 °C -23.8 °C 34510.1 hPa ENE 7.7 km/h 10.3 km/h 17 % 0 mm
12:25 -10.2 °C -23.9 °C 34510.1 hPa ESE 7.7 km/h 12.9 km/h 17 % 0 mm
12:30 -10.2 °C -23.8 °C 34510.1 hPa East 10.3 km/h 12.9 km/h 17 % 0 mm
12:35 -10.2 °C -23.8 °C 34510.1 hPa ESE 7.7 km/h 12.9 km/h 17 % 0 mm
12:40 -10.1 °C -23.8 °C 34510.1 hPa East 10.3 km/h 15.6 km/h 17 % 0 mm
12:45 -10.1 °C -23.8 °C 34510.1 hPa East 10.3 km/h 15.6 km/h 17 % 0 mm
12:50 -10.1 °C -23.8 °C 34510.1 hPa East 12.9 km/h 15.6 km/h 17 % 0 mm
12:55 -10.1 °C -23.8 °C 34510.1 hPa ENE 10.3 km/h 15.6 km/h 17 % 0 mm
13:00 -10 °C -23.7 °C 34510.1 hPa ESE 12.9 km/h 15.6 km/h 17 % 0 mm
13:05 -9.9 °C -23.7 °C 34476.3 hPa ENE 10.3 km/h 15.6 km/h 17 % 0 mm
13:10 -9.9 °C -23.7 °C 34476.3 hPa ESE 10.3 km/h 12.9 km/h 17 % 0 mm
13:15 -9.9 °C -23.7 °C 34476.3 hPa ESE 10.3 km/h 12.9 km/h 17 % 0 mm
13:20 -9.9 °C -23.7 °C 34476.3 hPa ESE 12.9 km/h 20.8 km/h 17 % 0 mm
13:25 -9.9 °C -23.7 °C 34476.3 hPa ESE 12.9 km/h 18.2 km/h 17 % 0 mm
13:30 -10 °C -23.7 °C 34476.3 hPa ENE 12.9 km/h 20.8 km/h 17 % 0 mm
13:35 -10 °C -23.7 °C 34476.3 hPa East 10.3 km/h 20.8 km/h 17 % 0 mm
13:40 -9.9 °C -23.7 °C 34476.3 hPa SE 10.3 km/h 15.6 km/h 17 % 0 mm
13:45 -9.9 °C -23.7 °C 34476.3 hPa East 12.9 km/h 18.2 km/h 17 % 0 mm
13:50 -9.9 °C -23.7 °C 34476.3 hPa East 12.9 km/h 20.8 km/h 17 % 0 mm
13:55 -9.9 °C -23.7 °C 34476.3 hPa SE 15.6 km/h 20.8 km/h 17 % 0 mm
14:00 -9.9 °C -23.7 °C 34476.3 hPa East 12.9 km/h 20.8 km/h 17 % 0 mm
14:05 -9.9 °C -23.7 °C 34476.3 hPa ENE 12.9 km/h 18.2 km/h 17 % 0 mm
14:10 -9.9 °C -23.7 °C 34476.3 hPa East 12.9 km/h 15.6 km/h 17 % 0 mm
Stazione meteorologica di Castelnuovo Vomano (TE)
complimenti di Weather Underground - 3.25 mb

Script sviluppato da  Jim McMurry - jmcmurry@mwt.net Adattato per il modello da  Wim van der Kuil - Leuven-Template.eu

Potete trovare le nostre info meteo anche a:

Weather Underground

AWEKAS

Citizen Weather Observer Program (CWOP)

HAMweather, WeatherForYou, PWS Weather

Strumentazione usata:

Stazione meteo
Oregon 928

Programma gestore dati meteo
WVIEW

Server per i dati meteo
Pc-WDS5

Oregon 928

WVIEW

Pc-WDS5